sensor_id;sensor_type;location;lat;lon;timestamp;temperature;humidity
37300;DHT22;23184;51.902;12.836;2024-02-15T00:01:10;8.50;99.90
37300;DHT22;23184;51.902;12.836;2024-02-15T00:03:36;8.50;99.90
37300;DHT22;23184;51.902;12.836;2024-02-15T00:06:01;8.50;99.90
37300;DHT22;23184;51.902;12.836;2024-02-15T00:08:29;8.50;99.90
37300;DHT22;23184;51.902;12.836;2024-02-15T00:10:54;8.50;99.90
37300;DHT22;23184;51.902;12.836;2024-02-15T00:13:20;8.50;99.90
37300;DHT22;23184;51.902;12.836;2024-02-15T00:15:45;8.50;99.90
37300;DHT22;23184;51.902;12.836;2024-02-15T00:18:15;8.50;99.90
37300;DHT22;23184;51.902;12.836;2024-02-15T00:20:41;8.50;99.90
37300;DHT22;23184;51.902;12.836;2024-02-15T00:23:07;8.50;99.90
37300;DHT22;23184;51.902;12.836;2024-02-15T00:25:32;8.50;99.90
37300;DHT22;23184;51.902;12.836;2024-02-15T00:27:58;8.50;99.90
37300;DHT22;23184;51.902;12.836;2024-02-15T00:30:25;8.50;99.90
37300;DHT22;23184;51.902;12.836;2024-02-15T00:32:52;8.40;99.90
37300;DHT22;23184;51.902;12.836;2024-02-15T00:35:18;8.50;99.90
37300;DHT22;23184;51.902;12.836;2024-02-15T00:37:44;8.50;99.90
37300;DHT22;23184;51.902;12.836;2024-02-15T00:40:10;8.50;99.90
37300;DHT22;23184;51.902;12.836;2024-02-15T00:42:36;8.40;99.90
37300;DHT22;23184;51.902;12.836;2024-02-15T00:45:01;8.50;99.90
37300;DHT22;23184;51.902;12.836;2024-02-15T00:47:27;8.50;99.90
37300;DHT22;23184;51.902;12.836;2024-02-15T00:49:53;8.50;99.90
37300;DHT22;23184;51.902;12.836;2024-02-15T00:52:19;8.50;99.90
37300;DHT22;23184;51.902;12.836;2024-02-15T00:54:45;8.50;99.90
37300;DHT22;23184;51.902;12.836;2024-02-15T00:57:11;8.50;99.90
37300;DHT22;23184;51.902;12.836;2024-02-15T00:59:37;8.50;99.90
37300;DHT22;23184;51.902;12.836;2024-02-15T01:02:03;8.50;99.90
37300;DHT22;23184;51.902;12.836;2024-02-15T01:04:29;8.50;99.90
37300;DHT22;23184;51.902;12.836;2024-02-15T01:06:54;8.50;99.90
37300;DHT22;23184;51.902;12.836;2024-02-15T01:09:21;8.50;99.90
37300;DHT22;23184;51.902;12.836;2024-02-15T01:11:46;8.50;99.90
37300;DHT22;23184;51.902;12.836;2024-02-15T01:14:13;8.60;99.90
37300;DHT22;23184;51.902;12.836;2024-02-15T01:16:38;8.60;99.90
37300;DHT22;23184;51.902;12.836;2024-02-15T01:19:04;8.60;99.90
37300;DHT22;23184;51.902;12.836;2024-02-15T01:21:30;8.60;99.90
37300;DHT22;23184;51.902;12.836;2024-02-15T01:23:58;8.70;99.90
37300;DHT22;23184;51.902;12.836;2024-02-15T01:26:26;8.70;99.90
37300;DHT22;23184;51.902;12.836;2024-02-15T01:28:52;8.70;99.90
37300;DHT22;23184;51.902;12.836;2024-02-15T01:31:17;8.70;99.90
37300;DHT22;23184;51.902;12.836;2024-02-15T01:33:44;8.70;99.90
37300;DHT22;23184;51.902;12.836;2024-02-15T01:36:14;8.70;99.90
37300;DHT22;23184;51.902;12.836;2024-02-15T01:38:41;8.70;99.90
37300;DHT22;23184;51.902;12.836;2024-02-15T01:41:07;8.80;99.90
37300;DHT22;23184;51.902;12.836;2024-02-15T01:43:32;8.80;99.90
37300;DHT22;23184;51.902;12.836;2024-02-15T01:45:58;8.80;99.90
37300;DHT22;23184;51.902;12.836;2024-02-15T01:48:27;8.80;99.90
37300;DHT22;23184;51.902;12.836;2024-02-15T01:50:52;8.80;99.90
37300;DHT22;23184;51.902;12.836;2024-02-15T01:53:18;8.80;99.90
37300;DHT22;23184;51.902;12.836;2024-02-15T01:55:44;8.90;99.90
37300;DHT22;23184;51.902;12.836;2024-02-15T01:58:09;8.90;99.90
37300;DHT22;23184;51.902;12.836;2024-02-15T02:00:36;8.90;99.90
37300;DHT22;23184;51.902;12.836;2024-02-15T02:03:05;8.90;99.90
37300;DHT22;23184;51.902;12.836;2024-02-15T02:05:31;8.80;99.90
37300;DHT22;23184;51.902;12.836;2024-02-15T02:07:57;8.90;99.90
37300;DHT22;23184;51.902;12.836;2024-02-15T02:10:29;8.90;99.90
37300;DHT22;23184;51.902;12.836;2024-02-15T02:12:59;8.90;99.90
37300;DHT22;23184;51.902;12.836;2024-02-15T02:15:25;8.90;99.90
37300;DHT22;23184;51.902;12.836;2024-02-15T02:17:51;8.90;99.90
37300;DHT22;23184;51.902;12.836;2024-02-15T02:20:16;8.90;99.90
37300;DHT22;23184;51.902;12.836;2024-02-15T02:22:45;9.00;99.90
37300;DHT22;23184;51.902;12.836;2024-02-15T02:25:12;8.90;99.90
37300;DHT22;23184;51.902;12.836;2024-02-15T02:27:38;9.00;99.90
37300;DHT22;23184;51.902;12.836;2024-02-15T02:30:13;9.00;99.90
37300;DHT22;23184;51.902;12.836;2024-02-15T02:32:47;9.00;99.90
37300;DHT22;23184;51.902;12.836;2024-02-15T02:35:13;9.00;99.90
37300;DHT22;23184;51.902;12.836;2024-02-15T02:37:41;9.00;99.90
37300;DHT22;23184;51.902;12.836;2024-02-15T02:40:07;9.10;99.90
37300;DHT22;23184;51.902;12.836;2024-02-15T02:42:54;9.00;99.90
37300;DHT22;23184;51.902;12.836;2024-02-15T02:45:26;9.00;99.90
37300;DHT22;23184;51.902;12.836;2024-02-15T02:47:52;9.00;99.90
37300;DHT22;23184;51.902;12.836;2024-02-15T02:50:18;9.00;99.90
37300;DHT22;23184;51.902;12.836;2024-02-15T02:52:44;9.10;99.90
37300;DHT22;23184;51.902;12.836;2024-02-15T02:55:10;9.00;99.90
37300;DHT22;23184;51.902;12.836;2024-02-15T02:57:39;9.00;99.90
37300;DHT22;23184;51.902;12.836;2024-02-15T03:00:09;9.00;99.90
37300;DHT22;23184;51.902;12.836;2024-02-15T03:02:40;9.00;99.90
37300;DHT22;23184;51.902;12.836;2024-02-15T03:05:07;9.00;99.90
37300;DHT22;23184;51.902;12.836;2024-02-15T03:07:34;9.00;99.90
37300;DHT22;23184;51.902;12.836;2024-02-15T03:10:01;9.00;99.90
37300;DHT22;23184;51.902;12.836;2024-02-15T03:12:26;9.10;99.90
37300;DHT22;23184;51.902;12.836;2024-02-15T03:14:52;9.10;99.90
37300;DHT22;23184;51.902;12.836;2024-02-15T03:17:18;9.10;99.90
37300;DHT22;23184;51.902;12.836;2024-02-15T03:19:43;9.10;99.90
37300;DHT22;23184;51.902;12.836;2024-02-15T03:25:24;9.10;99.90
37300;DHT22;23184;51.902;12.836;2024-02-15T03:27:53;9.10;99.90
37300;DHT22;23184;51.902;12.836;2024-02-15T03:30:20;9.20;99.90
37300;DHT22;23184;51.902;12.836;2024-02-15T03:32:46;9.20;99.90
37300;DHT22;23184;51.902;12.836;2024-02-15T03:35:17;9.20;99.90
37300;DHT22;23184;51.902;12.836;2024-02-15T03:37:43;9.20;99.90
37300;DHT22;23184;51.902;12.836;2024-02-15T03:40:09;9.20;99.90
37300;DHT22;23184;51.902;12.836;2024-02-15T03:42:35;9.20;99.90
37300;DHT22;23184;51.902;12.836;2024-02-15T03:45:04;9.20;99.90
37300;DHT22;23184;51.902;12.836;2024-02-15T03:47:35;9.20;99.90
37300;DHT22;23184;51.902;12.836;2024-02-15T03:50:04;9.20;99.90
37300;DHT22;23184;51.902;12.836;2024-02-15T03:52:31;9.20;99.90
37300;DHT22;23184;51.902;12.836;2024-02-15T03:54:57;9.20;99.90
37300;DHT22;23184;51.902;12.836;2024-02-15T03:57:23;9.20;99.90
37300;DHT22;23184;51.902;12.836;2024-02-15T03:59:49;9.20;99.90
37300;DHT22;23184;51.902;12.836;2024-02-15T04:02:23;9.10;99.90
37300;DHT22;23184;51.902;12.836;2024-02-15T04:04:55;9.20;99.90
37300;DHT22;23184;51.902;12.836;2024-02-15T04:07:24;9.20;99.90
37300;DHT22;23184;51.902;12.836;2024-02-15T04:09:53;9.20;99.90
37300;DHT22;23184;51.902;12.836;2024-02-15T04:12:18;9.20;99.90
37300;DHT22;23184;51.902;12.836;2024-02-15T04:14:44;9.10;99.90
37300;DHT22;23184;51.902;12.836;2024-02-15T04:17:10;9.10;99.90
37300;DHT22;23184;51.902;12.836;2024-02-15T04:19:36;9.10;99.90
37300;DHT22;23184;51.902;12.836;2024-02-15T04:22:02;9.10;99.90
37300;DHT22;23184;51.902;12.836;2024-02-15T04:24:33;9.10;99.90
37300;DHT22;23184;51.902;12.836;2024-02-15T04:26:58;9.20;99.90
37300;DHT22;23184;51.902;12.836;2024-02-15T04:29:24;9.20;99.90
37300;DHT22;23184;51.902;12.836;2024-02-15T04:31:50;9.10;99.90
37300;DHT22;23184;51.902;12.836;2024-02-15T04:34:16;9.10;99.90
37300;DHT22;23184;51.902;12.836;2024-02-15T04:36:45;9.10;99.90
37300;DHT22;23184;51.902;12.836;2024-02-15T04:39:15;9.10;99.90
37300;DHT22;23184;51.902;12.836;2024-02-15T04:41:50;9.20;99.90
37300;DHT22;23184;51.902;12.836;2024-02-15T04:44:15;9.20;99.90
37300;DHT22;23184;51.902;12.836;2024-02-15T04:46:41;9.20;99.90
37300;DHT22;23184;51.902;12.836;2024-02-15T04:49:10;9.20;99.90
37300;DHT22;23184;51.902;12.836;2024-02-15T04:51:35;9.20;99.90
37300;DHT22;23184;51.902;12.836;2024-02-15T04:54:02;9.20;99.90
37300;DHT22;23184;51.902;12.836;2024-02-15T04:56:27;9.20;99.90
37300;DHT22;23184;51.902;12.836;2024-02-15T04:58:52;9.10;99.90
37300;DHT22;23184;51.902;12.836;2024-02-15T05:01:19;9.10;99.90
37300;DHT22;23184;51.902;12.836;2024-02-15T05:03:44;9.10;99.90
37300;DHT22;23184;51.902;12.836;2024-02-15T05:06:11;9.10;99.90
37300;DHT22;23184;51.902;12.836;2024-02-15T05:08:38;9.10;99.90
37300;DHT22;23184;51.902;12.836;2024-02-15T05:11:08;9.10;99.90
37300;DHT22;23184;51.902;12.836;2024-02-15T05:13:39;9.10;99.90
37300;DHT22;23184;51.902;12.836;2024-02-15T05:16:05;9.00;99.90
37300;DHT22;23184;51.902;12.836;2024-02-15T05:18:31;9.00;99.90
37300;DHT22;23184;51.902;12.836;2024-02-15T05:20:56;9.00;99.90
37300;DHT22;23184;51.902;12.836;2024-02-15T05:23:22;9.00;99.90
37300;DHT22;23184;51.902;12.836;2024-02-15T05:25:48;8.90;99.90
37300;DHT22;23184;51.902;12.836;2024-02-15T05:28:13;8.90;99.90
37300;DHT22;23184;51.902;12.836;2024-02-15T05:30:39;9.00;99.90
37300;DHT22;23184;51.902;12.836;2024-02-15T05:33:04;9.00;99.90
37300;DHT22;23184;51.902;12.836;2024-02-15T05:35:30;9.00;99.90
37300;DHT22;23184;51.902;12.836;2024-02-15T05:37:56;9.00;99.90
37300;DHT22;23184;51.902;12.836;2024-02-15T05:40:21;9.10;99.90
37300;DHT22;23184;51.902;12.836;2024-02-15T05:42:47;9.10;99.90
37300;DHT22;23184;51.902;12.836;2024-02-15T05:47:51;9.20;99.90
37300;DHT22;23184;51.902;12.836;2024-02-15T05:50:17;9.10;99.90
37300;DHT22;23184;51.902;12.836;2024-02-15T05:52:46;9.00;99.90
37300;DHT22;23184;51.902;12.836;2024-02-15T05:55:12;9.00;99.90
37300;DHT22;23184;51.902;12.836;2024-02-15T05:57:43;9.00;99.90
37300;DHT22;23184;51.902;12.836;2024-02-15T06:00:09;9.00;99.90
37300;DHT22;23184;51.902;12.836;2024-02-15T06:02:35;9.00;99.90
37300;DHT22;23184;51.902;12.836;2024-02-15T06:05:00;9.10;99.90
37300;DHT22;23184;51.902;12.836;2024-02-15T06:07:29;9.10;99.90
37300;DHT22;23184;51.902;12.836;2024-02-15T06:09:57;9.20;99.90
37300;DHT22;23184;51.902;12.836;2024-02-15T06:12:22;9.20;99.90
37300;DHT22;23184;51.902;12.836;2024-02-15T06:14:48;9.20;99.90
37300;DHT22;23184;51.902;12.836;2024-02-15T06:17:14;9.20;99.90
37300;DHT22;23184;51.902;12.836;2024-02-15T06:19:39;9.20;99.90
37300;DHT22;23184;51.902;12.836;2024-02-15T06:22:05;9.20;99.90
37300;DHT22;23184;51.902;12.836;2024-02-15T06:24:30;9.20;99.90
37300;DHT22;23184;51.902;12.836;2024-02-15T06:26:56;9.30;99.90
37300;DHT22;23184;51.902;12.836;2024-02-15T06:29:25;9.30;99.90
37300;DHT22;23184;51.902;12.836;2024-02-15T06:32:09;9.30;99.90
37300;DHT22;23184;51.902;12.836;2024-02-15T06:34:53;9.30;99.90
37300;DHT22;23184;51.902;12.836;2024-02-15T06:37:37;9.30;99.90
37300;DHT22;23184;51.902;12.836;2024-02-15T06:40:21;9.30;99.90
37300;DHT22;23184;51.902;12.836;2024-02-15T06:42:48;9.30;99.90
37300;DHT22;23184;51.902;12.836;2024-02-15T06:45:13;9.40;99.90
37300;DHT22;23184;51.902;12.836;2024-02-15T06:47:42;9.40;99.90
37300;DHT22;23184;51.902;12.836;2024-02-15T06:50:10;9.40;99.90
37300;DHT22;23184;51.902;12.836;2024-02-15T06:52:37;9.40;99.90
37300;DHT22;23184;51.902;12.836;2024-02-15T06:55:03;9.40;99.90
37300;DHT22;23184;51.902;12.836;2024-02-15T06:57:29;9.40;99.90
37300;DHT22;23184;51.902;12.836;2024-02-15T06:59:55;9.40;99.90
37300;DHT22;23184;51.902;12.836;2024-02-15T07:02:22;9.50;99.90
37300;DHT22;23184;51.902;12.836;2024-02-15T07:04:48;9.60;99.90
37300;DHT22;23184;51.902;12.836;2024-02-15T07:07:14;9.70;99.90
37300;DHT22;23184;51.902;12.836;2024-02-15T07:09:40;9.70;99.90
37300;DHT22;23184;51.902;12.836;2024-02-15T07:12:05;9.70;99.90
37300;DHT22;23184;51.902;12.836;2024-02-15T07:14:31;9.70;99.90
37300;DHT22;23184;51.902;12.836;2024-02-15T07:16:56;9.80;99.90
37300;DHT22;23184;51.902;12.836;2024-02-15T07:19:23;9.80;99.90
37300;DHT22;23184;51.902;12.836;2024-02-15T07:21:49;9.80;99.90
37300;DHT22;23184;51.902;12.836;2024-02-15T07:24:14;9.80;99.90
37300;DHT22;23184;51.902;12.836;2024-02-15T07:26:40;9.80;99.90
37300;DHT22;23184;51.902;12.836;2024-02-15T07:29:07;9.80;99.90
37300;DHT22;23184;51.902;12.836;2024-02-15T07:31:33;9.80;99.90
37300;DHT22;23184;51.902;12.836;2024-02-15T07:33:59;9.90;99.90
37300;DHT22;23184;51.902;12.836;2024-02-15T07:36:25;9.90;99.90
37300;DHT22;23184;51.902;12.836;2024-02-15T07:38:52;9.90;99.90
37300;DHT22;23184;51.902;12.836;2024-02-15T07:41:19;10.00;99.90
37300;DHT22;23184;51.902;12.836;2024-02-15T07:43:51;10.00;99.90
37300;DHT22;23184;51.902;12.836;2024-02-15T07:46:21;10.00;99.90
37300;DHT22;23184;51.902;12.836;2024-02-15T07:48:47;10.10;99.90
37300;DHT22;23184;51.902;12.836;2024-02-15T07:51:14;10.10;99.90
37300;DHT22;23184;51.902;12.836;2024-02-15T07:53:40;10.10;99.90
37300;DHT22;23184;51.902;12.836;2024-02-15T07:56:08;10.10;99.90
37300;DHT22;23184;51.902;12.836;2024-02-15T07:58:33;10.10;99.90
37300;DHT22;23184;51.902;12.836;2024-02-15T08:00:59;10.10;99.90
37300;DHT22;23184;51.902;12.836;2024-02-15T08:03:25;10.10;99.90
37300;DHT22;23184;51.902;12.836;2024-02-15T08:05:52;10.00;99.90
37300;DHT22;23184;51.902;12.836;2024-02-15T08:08:17;10.00;99.90
37300;DHT22;23184;51.902;12.836;2024-02-15T08:10:43;10.00;99.90
37300;DHT22;23184;51.902;12.836;2024-02-15T08:13:10;10.10;99.90
37300;DHT22;23184;51.902;12.836;2024-02-15T08:15:36;10.10;99.90
37300;DHT22;23184;51.902;12.836;2024-02-15T08:18:01;10.20;99.90
37300;DHT22;23184;51.902;12.836;2024-02-15T08:20:30;10.20;99.90
37300;DHT22;23184;51.902;12.836;2024-02-15T08:22:56;10.30;99.90
37300;DHT22;23184;51.902;12.836;2024-02-15T08:25:24;10.30;99.90
37300;DHT22;23184;51.902;12.836;2024-02-15T08:27:50;10.30;99.90
37300;DHT22;23184;51.902;12.836;2024-02-15T08:30:16;10.30;99.90
37300;DHT22;23184;51.902;12.836;2024-02-15T08:32:43;10.30;99.90
37300;DHT22;23184;51.902;12.836;2024-02-15T08:35:09;10.30;99.90
37300;DHT22;23184;51.902;12.836;2024-02-15T08:37:35;10.40;99.90
37300;DHT22;23184;51.902;12.836;2024-02-15T08:40:06;10.40;99.90
37300;DHT22;23184;51.902;12.836;2024-02-15T08:42:38;10.40;99.90
37300;DHT22;23184;51.902;12.836;2024-02-15T08:45:04;10.50;99.90
37300;DHT22;23184;51.902;12.836;2024-02-15T08:47:30;10.50;99.90
37300;DHT22;23184;51.902;12.836;2024-02-15T08:49:56;10.60;99.90
37300;DHT22;23184;51.902;12.836;2024-02-15T08:52:21;10.60;99.90
37300;DHT22;23184;51.902;12.836;2024-02-15T08:54:46;10.70;99.90
37300;DHT22;23184;51.902;12.836;2024-02-15T08:57:12;10.80;99.90
37300;DHT22;23184;51.902;12.836;2024-02-15T08:59:39;10.70;99.90
37300;DHT22;23184;51.902;12.836;2024-02-15T09:02:05;10.80;99.90
37300;DHT22;23184;51.902;12.836;2024-02-15T09:04:31;10.80;99.90
37300;DHT22;23184;51.902;12.836;2024-02-15T09:06:56;10.90;99.90
37300;DHT22;23184;51.902;12.836;2024-02-15T09:09:22;10.80;99.90
37300;DHT22;23184;51.902;12.836;2024-02-15T09:11:47;10.90;99.90
37300;DHT22;23184;51.902;12.836;2024-02-15T09:14:13;10.90;99.90
37300;DHT22;23184;51.902;12.836;2024-02-15T09:16:38;10.90;99.90
37300;DHT22;23184;51.902;12.836;2024-02-15T09:19:05;10.90;99.90
37300;DHT22;23184;51.902;12.836;2024-02-15T09:21:31;11.00;99.90
37300;DHT22;23184;51.902;12.836;2024-02-15T09:23:59;11.00;99.90
37300;DHT22;23184;51.902;12.836;2024-02-15T09:26:24;11.00;99.90
37300;DHT22;23184;51.902;12.836;2024-02-15T09:28:50;11.10;99.90
37300;DHT22;23184;51.902;12.836;2024-02-15T09:31:15;11.20;99.90
37300;DHT22;23184;51.902;12.836;2024-02-15T09:33:41;11.20;99.90
37300;DHT22;23184;51.902;12.836;2024-02-15T09:36:06;11.20;99.90
37300;DHT22;23184;51.902;12.836;2024-02-15T09:38:32;11.40;99.90
37300;DHT22;23184;51.902;12.836;2024-02-15T09:40:57;11.30;99.90
37300;DHT22;23184;51.902;12.836;2024-02-15T09:43:23;11.40;99.90
37300;DHT22;23184;51.902;12.836;2024-02-15T09:45:52;11.40;99.90
37300;DHT22;23184;51.902;12.836;2024-02-15T09:48:18;11.40;99.90
37300;DHT22;23184;51.902;12.836;2024-02-15T09:50:45;11.50;99.90
37300;DHT22;23184;51.902;12.836;2024-02-15T09:53:14;11.50;99.90
37300;DHT22;23184;51.902;12.836;2024-02-15T09:55:40;11.50;99.90
37300;DHT22;23184;51.902;12.836;2024-02-15T09:58:07;11.50;99.90
37300;DHT22;23184;51.902;12.836;2024-02-15T10:00:35;11.50;99.90
37300;DHT22;23184;51.902;12.836;2024-02-15T10:03:02;11.60;99.90
37300;DHT22;23184;51.902;12.836;2024-02-15T10:05:31;11.50;99.90
37300;DHT22;23184;51.902;12.836;2024-02-15T10:07:56;11.80;99.90
37300;DHT22;23184;51.902;12.836;2024-02-15T10:10:23;12.00;99.90
37300;DHT22;23184;51.902;12.836;2024-02-15T10:12:51;12.10;99.90
37300;DHT22;23184;51.902;12.836;2024-02-15T10:15:30;12.10;99.90
37300;DHT22;23184;51.902;12.836;2024-02-15T10:17:57;12.20;99.90
37300;DHT22;23184;51.902;12.836;2024-02-15T10:20:24;12.20;99.90
37300;DHT22;23184;51.902;12.836;2024-02-15T10:22:52;12.30;99.90
37300;DHT22;23184;51.902;12.836;2024-02-15T10:25:18;12.20;99.90
37300;DHT22;23184;51.902;12.836;2024-02-15T10:27:44;12.30;99.90
37300;DHT22;23184;51.902;12.836;2024-02-15T10:32:43;12.20;99.90
37300;DHT22;23184;51.902;12.836;2024-02-15T10:35:09;12.20;99.90
37300;DHT22;23184;51.902;12.836;2024-02-15T10:37:34;12.20;99.90
37300;DHT22;23184;51.902;12.836;2024-02-15T10:40:06;12.30;99.90
37300;DHT22;23184;51.902;12.836;2024-02-15T10:42:33;12.50;99.90
37300;DHT22;23184;51.902;12.836;2024-02-15T10:45:03;12.40;99.90
37300;DHT22;23184;51.902;12.836;2024-02-15T10:47:37;12.30;99.90
37300;DHT22;23184;51.902;12.836;2024-02-15T10:50:03;12.40;99.90
37300;DHT22;23184;51.902;12.836;2024-02-15T10:52:31;12.40;99.90
37300;DHT22;23184;51.902;12.836;2024-02-15T10:55:03;12.30;99.90
37300;DHT22;23184;51.902;12.836;2024-02-15T10:57:31;12.30;99.90
37300;DHT22;23184;51.902;12.836;2024-02-15T10:59:59;12.20;99.90
37300;DHT22;23184;51.902;12.836;2024-02-15T11:02:37;12.20;99.90
37300;DHT22;23184;51.902;12.836;2024-02-15T11:05:07;12.30;99.90
37300;DHT22;23184;51.902;12.836;2024-02-15T11:07:37;12.30;99.90
37300;DHT22;23184;51.902;12.836;2024-02-15T11:10:04;12.40;99.90
37300;DHT22;23184;51.902;12.836;2024-02-15T11:12:33;12.40;99.90
37300;DHT22;23184;51.902;12.836;2024-02-15T11:15:00;12.40;99.90
37300;DHT22;23184;51.902;12.836;2024-02-15T11:17:51;12.30;99.90
37300;DHT22;23184;51.902;12.836;2024-02-15T11:23:02;12.30;99.90
37300;DHT22;23184;51.902;12.836;2024-02-15T11:25:36;12.40;99.90
37300;DHT22;23184;51.902;12.836;2024-02-15T11:30:53;12.50;99.90
37300;DHT22;23184;51.902;12.836;2024-02-15T11:33:31;12.60;99.90
37300;DHT22;23184;51.902;12.836;2024-02-15T11:36:12;12.70;99.90
37300;DHT22;23184;51.902;12.836;2024-02-15T11:38:39;12.80;99.90
37300;DHT22;23184;51.902;12.836;2024-02-15T11:41:09;12.90;99.90
37300;DHT22;23184;51.902;12.836;2024-02-15T11:43:49;13.30;99.90
37300;DHT22;23184;51.902;12.836;2024-02-15T11:46:16;13.60;99.90
37300;DHT22;23184;51.902;12.836;2024-02-15T11:48:48;13.70;99.90
37300;DHT22;23184;51.902;12.836;2024-02-15T11:51:33;13.70;99.90
37300;DHT22;23184;51.902;12.836;2024-02-15T11:54:03;13.50;99.90
37300;DHT22;23184;51.902;12.836;2024-02-15T11:56:52;13.40;99.90
37300;DHT22;23184;51.902;12.836;2024-02-15T11:59:19;13.20;99.90
37300;DHT22;23184;51.902;12.836;2024-02-15T12:01:57;13.20;99.90
37300;DHT22;23184;51.902;12.836;2024-02-15T12:04:41;13.10;99.90
37300;DHT22;23184;51.902;12.836;2024-02-15T12:07:26;13.00;99.90
37300;DHT22;23184;51.902;12.836;2024-02-15T12:10:17;12.90;99.90
37300;DHT22;23184;51.902;12.836;2024-02-15T12:13:01;13.00;99.90
37300;DHT22;23184;51.902;12.836;2024-02-15T12:15:59;12.90;99.90
37300;DHT22;23184;51.902;12.836;2024-02-15T12:18:44;13.10;99.90
37300;DHT22;23184;51.902;12.836;2024-02-15T12:21:15;13.10;99.90
37300;DHT22;23184;51.902;12.836;2024-02-15T12:23:41;13.00;99.90
37300;DHT22;23184;51.902;12.836;2024-02-15T12:26:07;13.20;99.90
37300;DHT22;23184;51.902;12.836;2024-02-15T12:28:33;13.30;99.90
37300;DHT22;23184;51.902;12.836;2024-02-15T12:31:01;13.50;99.90
37300;DHT22;23184;51.902;12.836;2024-02-15T12:33:27;13.40;99.90
37300;DHT22;23184;51.902;12.836;2024-02-15T12:36:04;13.40;99.90
37300;DHT22;23184;51.902;12.836;2024-02-15T12:38:36;13.30;99.90
37300;DHT22;23184;51.902;12.836;2024-02-15T12:41:04;13.50;99.90
37300;DHT22;23184;51.902;12.836;2024-02-15T12:43:42;13.50;99.90
37300;DHT22;23184;51.902;12.836;2024-02-15T12:46:08;13.40;99.90
37300;DHT22;23184;51.902;12.836;2024-02-15T12:48:33;13.50;99.90
37300;DHT22;23184;51.902;12.836;2024-02-15T12:51:13;13.50;99.90
37300;DHT22;23184;51.902;12.836;2024-02-15T12:53:39;13.50;99.90
37300;DHT22;23184;51.902;12.836;2024-02-15T12:56:07;13.50;99.90
37300;DHT22;23184;51.902;12.836;2024-02-15T12:58:34;13.70;99.90
37300;DHT22;23184;51.902;12.836;2024-02-15T13:01:00;13.60;99.90
37300;DHT22;23184;51.902;12.836;2024-02-15T13:03:27;13.70;99.90
37300;DHT22;23184;51.902;12.836;2024-02-15T13:05:52;13.70;99.90
37300;DHT22;23184;51.902;12.836;2024-02-15T13:08:18;13.70;99.90
37300;DHT22;23184;51.902;12.836;2024-02-15T13:10:45;13.70;99.90
37300;DHT22;23184;51.902;12.836;2024-02-15T13:13:10;13.70;99.90
37300;DHT22;23184;51.902;12.836;2024-02-15T13:15:36;13.70;99.90
37300;DHT22;23184;51.902;12.836;2024-02-15T13:18:02;13.70;99.90
37300;DHT22;23184;51.902;12.836;2024-02-15T13:20:31;13.70;99.90
37300;DHT22;23184;51.902;12.836;2024-02-15T13:23:02;13.80;99.90
37300;DHT22;23184;51.902;12.836;2024-02-15T13:25:34;13.80;99.90
37300;DHT22;23184;51.902;12.836;2024-02-15T13:27:59;13.90;99.90
37300;DHT22;23184;51.902;12.836;2024-02-15T13:30:24;14.00;99.90
37300;DHT22;23184;51.902;12.836;2024-02-15T13:32:53;14.00;99.90
37300;DHT22;23184;51.902;12.836;2024-02-15T13:35:21;14.00;99.90
37300;DHT22;23184;51.902;12.836;2024-02-15T13:37:50;13.90;99.90
37300;DHT22;23184;51.902;12.836;2024-02-15T13:40:18;13.90;99.90
37300;DHT22;23184;51.902;12.836;2024-02-15T13:42:45;13.90;99.90
37300;DHT22;23184;51.902;12.836;2024-02-15T13:47:50;14.00;99.90
37300;DHT22;23184;51.902;12.836;2024-02-15T13:50:16;14.00;99.90
37300;DHT22;23184;51.902;12.836;2024-02-15T13:52:44;14.00;99.90
37300;DHT22;23184;51.902;12.836;2024-02-15T13:55:10;14.10;99.90
37300;DHT22;23184;51.902;12.836;2024-02-15T13:57:37;14.10;99.90
37300;DHT22;23184;51.902;12.836;2024-02-15T14:00:03;14.20;99.90
37300;DHT22;23184;51.902;12.836;2024-02-15T14:02:31;14.20;99.90
37300;DHT22;23184;51.902;12.836;2024-02-15T14:04:56;14.20;99.90
37300;DHT22;23184;51.902;12.836;2024-02-15T14:07:22;14.30;99.90
37300;DHT22;23184;51.902;12.836;2024-02-15T14:09:47;14.20;99.90
37300;DHT22;23184;51.902;12.836;2024-02-15T14:12:13;14.10;99.90
37300;DHT22;23184;51.902;12.836;2024-02-15T14:14:40;14.20;99.90
37300;DHT22;23184;51.902;12.836;2024-02-15T14:17:05;14.20;99.90
37300;DHT22;23184;51.902;12.836;2024-02-15T14:19:31;14.10;99.90
37300;DHT22;23184;51.902;12.836;2024-02-15T14:21:56;14.20;99.90
37300;DHT22;23184;51.902;12.836;2024-02-15T14:24:22;14.20;99.90
37300;DHT22;23184;51.902;12.836;2024-02-15T14:26:48;14.20;99.90
37300;DHT22;23184;51.902;12.836;2024-02-15T14:29:14;14.10;99.90
37300;DHT22;23184;51.902;12.836;2024-02-15T14:31:40;14.00;99.90
37300;DHT22;23184;51.902;12.836;2024-02-15T14:34:24;13.90;99.90
37300;DHT22;23184;51.902;12.836;2024-02-15T14:36:51;13.90;99.90
37300;DHT22;23184;51.902;12.836;2024-02-15T14:39:16;14.00;99.90
37300;DHT22;23184;51.902;12.836;2024-02-15T14:41:42;14.10;99.90
37300;DHT22;23184;51.902;12.836;2024-02-15T14:44:09;14.10;99.90
37300;DHT22;23184;51.902;12.836;2024-02-15T14:46:35;14.10;99.90
37300;DHT22;23184;51.902;12.836;2024-02-15T14:49:01;14.20;99.90
37300;DHT22;23184;51.902;12.836;2024-02-15T14:51:28;14.20;99.90
37300;DHT22;23184;51.902;12.836;2024-02-15T14:53:53;14.10;99.90
37300;DHT22;23184;51.902;12.836;2024-02-15T14:56:19;14.20;99.90
37300;DHT22;23184;51.902;12.836;2024-02-15T14:58:44;14.20;99.90
37300;DHT22;23184;51.902;12.836;2024-02-15T15:01:10;14.10;99.90
37300;DHT22;23184;51.902;12.836;2024-02-15T15:03:38;14.20;99.90
37300;DHT22;23184;51.902;12.836;2024-02-15T15:06:04;14.20;99.90
37300;DHT22;23184;51.902;12.836;2024-02-15T15:08:48;14.10;99.90
37300;DHT22;23184;51.902;12.836;2024-02-15T15:11:32;14.10;99.90
37300;DHT22;23184;51.902;12.836;2024-02-15T15:14:16;14.20;99.90
37300;DHT22;23184;51.902;12.836;2024-02-15T15:16:42;14.10;99.90
37300;DHT22;23184;51.902;12.836;2024-02-15T15:19:08;13.90;99.90
37300;DHT22;23184;51.902;12.836;2024-02-15T15:21:35;14.00;99.90
37300;DHT22;23184;51.902;12.836;2024-02-15T15:24:00;13.90;99.90
37300;DHT22;23184;51.902;12.836;2024-02-15T15:26:26;13.90;99.90
37300;DHT22;23184;51.902;12.836;2024-02-15T15:28:52;13.90;99.90
37300;DHT22;23184;51.902;12.836;2024-02-15T15:31:17;14.00;99.90
37300;DHT22;23184;51.902;12.836;2024-02-15T15:33:45;13.90;99.90
37300;DHT22;23184;51.902;12.836;2024-02-15T15:36:11;13.80;99.90
37300;DHT22;23184;51.902;12.836;2024-02-15T15:38:37;13.70;99.90
37300;DHT22;23184;51.902;12.836;2024-02-15T15:41:02;13.60;99.90
37300;DHT22;23184;51.902;12.836;2024-02-15T15:43:29;13.60;99.90